Back to Top

Language: 

My Weather Underground Personal Weather Station Historical Data with Graphs...

Delerius Weather Station Historical Data
Daily Summary for November 5, 2017 Units:  Metric    English   Both
« Previous Day
Next Day »
Daily Weekly Monthly Yearly Custom
  High: Low: Average:
Temperature: 10.1 °C 0.4 °C 5.8 °C
Dew Point: 5.2 °C -0.9 °C 2.8 °C
Humidity: 91 % 67 % 82 %
Wind Speed: 20.9 km/h 0 km/h 8.7 km/h
Wind Gust: 33.8 km/h - -
Wind:- - WNW
Pressure: 1022.9 hPa 1005.3 hPa -
Precipitation: 0 mm    
Historical Graphs
 
 
Tabular Data for November 5, 2017
Time Temperature Dew Point Pressure Wind Wind Speed Wind Gust Humidity Rainfall Rate (Hourly) solar Conditions
00:03 5.1 °C 2.8 °C 1005.3 hPa WNW 6.4 km/h 12.9 km/h 85 % 0 mm 0 W/m2
00:08 5.1 °C 2.9 °C 1005.3 hPa WNW 8 km/h 12.9 km/h 86 % 0 mm 0 W/m2
00:13 5.1 °C 2.9 °C 1005.3 hPa West 8 km/h 14.5 km/h 86 % 0 mm 0 W/m2
00:18 5.1 °C 2.8 °C 1005.3 hPa West 8 km/h 14.5 km/h 85 % 0 mm 0 W/m2
00:23 5.1 °C 2.8 °C 1005.6 hPa WSW 6.4 km/h 9.7 km/h 85 % 0 mm 0 W/m2
00:28 5.2 °C 2.9 °C 1005.6 hPa WSW 6.4 km/h 11.3 km/h 85 % 0 mm 0 W/m2
00:33 5.1 °C 2.8 °C 1006 hPa WSW 3.2 km/h 8 km/h 85 % 0 mm 0 W/m2
00:38 5.1 °C 2.8 °C 1006 hPa West 11.3 km/h 19.3 km/h 85 % 0 mm 0 W/m2
00:43 5.1 °C 2.8 °C 1006 hPa West 8 km/h 11.3 km/h 85 % 0 mm 0 W/m2
00:48 5 °C 2.7 °C 1006 hPa West 6.4 km/h 12.9 km/h 85 % 0 mm 0 W/m2
00:53 5 °C 2.7 °C 1006 hPa West 6.4 km/h 12.9 km/h 85 % 0 mm 0 W/m2
00:59 5 °C 2.7 °C 1006 hPa West 8 km/h 9.7 km/h 85 % 0 mm 0 W/m2
01:04 5 °C 2.7 °C 1006 hPa West 8 km/h 14.5 km/h 85 % 0 mm 0 W/m2
01:09 5 °C 2.8 °C 1006 hPa West 8 km/h 14.5 km/h 86 % 0 mm 0 W/m2
01:14 5 °C 2.8 °C 1006 hPa WSW 12.9 km/h 17.7 km/h 86 % 0 mm 0 W/m2
01:19 5.1 °C 2.9 °C 1006 hPa West 11.3 km/h 14.5 km/h 86 % 0 mm 0 W/m2
01:24 5 °C 2.8 °C 1006 hPa West 9.7 km/h 17.7 km/h 86 % 0 mm 0 W/m2
01:29 5 °C 2.8 °C 1006 hPa West 9.7 km/h 14.5 km/h 86 % 0 mm 0 W/m2
01:34 4.9 °C 2.9 °C 1006 hPa West 6.4 km/h 12.9 km/h 87 % 0 mm 0 W/m2
01:39 4.9 °C 2.9 °C 1006 hPa West 4.8 km/h 11.3 km/h 87 % 0 mm 0 W/m2
01:44 4.9 °C 2.9 °C 1006 hPa West 4.8 km/h 9.7 km/h 87 % 0 mm 0 W/m2
01:49 4.9 °C 2.9 °C 1006 hPa West 8 km/h 16.1 km/h 87 % 0 mm 0 W/m2
01:54 4.9 °C 2.9 °C 1006 hPa West 8 km/h 14.5 km/h 87 % 0 mm 0 W/m2
01:59 4.9 °C 2.9 °C 1006.3 hPa West 14.5 km/h 22.5 km/h 87 % 0 mm 0 W/m2
02:04 4.9 °C 2.9 °C 1006.3 hPa West 12.9 km/h 20.9 km/h 87 % 0 mm 0 W/m2
02:09 4.9 °C 2.9 °C 1006.3 hPa West 12.9 km/h 17.7 km/h 87 % 0 mm 0 W/m2
02:14 4.9 °C 2.9 °C 1006 hPa West 11.3 km/h 19.3 km/h 87 % 0 mm 0 W/m2
02:19 4.9 °C 2.9 °C 1006 hPa West 11.3 km/h 16.1 km/h 87 % 0 mm 0 W/m2
02:24 4.8 °C 2.7 °C 1006 hPa West 14.5 km/h 20.9 km/h 86 % 0 mm 0 W/m2
02:29 4.8 °C 2.7 °C 1006 hPa West 12.9 km/h 19.3 km/h 86 % 0 mm 0 W/m2
02:34 4.7 °C 2.6 °C 1006 hPa West 11.3 km/h 16.1 km/h 86 % 0 mm 0 W/m2
02:39 4.7 °C 2.6 °C 1006.3 hPa West 9.7 km/h 12.9 km/h 86 % 0 mm 0 W/m2
02:44 4.6 °C 2.4 °C 1006.3 hPa West 8 km/h 12.9 km/h 86 % 0 mm 0 W/m2
02:49 4.6 °C 2.6 °C 1006.3 hPa West 9.7 km/h 16.1 km/h 87 % 0 mm 0 W/m2
02:54 4.5 °C 2.5 °C 1006.3 hPa West 9.7 km/h 16.1 km/h 87 % 0 mm 0 W/m2
02:59 4.4 °C 2.4 °C 1006.3 hPa West 12.9 km/h 16.1 km/h 87 % 0 mm 0 W/m2
03:04 4.4 °C 2.4 °C 1006.3 hPa West 8 km/h 14.5 km/h 87 % 0 mm 0 W/m2
03:09 4.3 °C 2.3 °C 1006.3 hPa West 8 km/h 11.3 km/h 87 % 0 mm 0 W/m2
03:17 4.2 °C 2.2 °C 1006.3 hPa West 6.4 km/h 11.3 km/h 87 % 0 mm 0 W/m2
03:20 4.2 °C 2.2 °C 1006.3 hPa West 6.4 km/h 9.7 km/h 87 % 0 mm 0 W/m2
03:21 4.1 °C 2.1 °C 1006.3 hPa West 6.4 km/h 9.7 km/h 87 % 0 mm 0 W/m2
03:26 4.1 °C 2.1 °C 1006.3 hPa West 6.4 km/h 9.7 km/h 87 % 0 mm 0 W/m2
03:27 4 °C 2.1 °C 1006.3 hPa West 4.8 km/h 8 km/h 87 % 0 mm 0 W/m2
03:32 3.9 °C 1.9 °C 1006.3 hPa West 4.8 km/h 11.3 km/h 87 % 0 mm 0 W/m2
03:33 3.9 °C 1.9 °C 1006.3 hPa West 4.8 km/h 11.3 km/h 87 % 0 mm 0 W/m2
03:39 3.8 °C 2 °C 1006.7 hPa West 4.8 km/h 9.7 km/h 88 % 0 mm 0 W/m2
03:44 3.8 °C 2 °C 1006.7 hPa West 4.8 km/h 11.3 km/h 88 % 0 mm 0 W/m2
03:49 3.8 °C 2.2 °C 1006.3 hPa West 4.8 km/h 9.7 km/h 89 % 0 mm 0 W/m2
03:54 3.8 °C 2.2 °C 1006.3 hPa West 4.8 km/h 11.3 km/h 89 % 0 mm 0 W/m2
03:59 3.7 °C 2.1 °C 1006.3 hPa West 4.8 km/h 8 km/h 89 % 0 mm 0 W/m2
04:04 3.7 °C 2.1 °C 1006.3 hPa WNW 8 km/h 14.5 km/h 89 % 0 mm 0 W/m2
04:09 3.8 °C 2.3 °C 1006.3 hPa WNW 6.4 km/h 9.7 km/h 90 % 0 mm 0 W/m2
04:14 3.8 °C 2.3 °C 1006.3 hPa West 4.8 km/h 11.3 km/h 90 % 0 mm 0 W/m2
04:19 3.8 °C 2.3 °C 1006.7 hPa West 3.2 km/h 9.7 km/h 90 % 0 mm 0 W/m2
04:24 3.8 °C 2.3 °C 1006.7 hPa West 3.2 km/h 8 km/h 90 % 0 mm 0 W/m2
04:29 3.8 °C 2.3 °C 1006.7 hPa West 8 km/h 12.9 km/h 90 % 0 mm 0 W/m2
04:34 3.9 °C 2.4 °C 1006.7 hPa West 4.8 km/h 11.3 km/h 90 % 0 mm 0 W/m2
04:39 3.9 °C 2.4 °C 1006.7 hPa West 4.8 km/h 11.3 km/h 90 % 0 mm 0 W/m2
04:44 4 °C 2.5 °C 1006.7 hPa West 8 km/h 16.1 km/h 90 % 0 mm 0 W/m2
04:49 4 °C 2.5 °C 1006.7 hPa West 8 km/h 12.9 km/h 90 % 0 mm 0 W/m2
04:54 4.1 °C 2.6 °C 1006.7 hPa West 8 km/h 12.9 km/h 90 % 0 mm 0 W/m2
04:59 4.2 °C 2.7 °C 1006.7 hPa West 9.7 km/h 17.7 km/h 90 % 0 mm 0 W/m2
05:04 4.3 °C 2.8 °C 1007 hPa West 9.7 km/h 12.9 km/h 90 % 0 mm 0 W/m2
05:09 4.3 °C 2.8 °C 1007 hPa West 8 km/h 16.1 km/h 90 % 0 mm 0 W/m2
05:14 4.4 °C 2.9 °C 1007 hPa West 9.7 km/h 16.1 km/h 90 % 0 mm 0 W/m2
05:19 4.5 °C 3 °C 1007.3 hPa West 9.7 km/h 17.7 km/h 90 % 0 mm 0 W/m2
05:24 4.6 °C 3.1 °C 1007 hPa West 12.9 km/h 19.3 km/h 90 % 0 mm 0 W/m2
05:29 4.7 °C 3.3 °C 1007.3 hPa WNW 12.9 km/h 17.7 km/h 91 % 0 mm 0 W/m2
05:34 4.7 °C 3.3 °C 1007.3 hPa WNW 12.9 km/h 22.5 km/h 91 % 0 mm 0 W/m2
05:39 4.7 °C 3.3 °C 1007.3 hPa West 12.9 km/h 19.3 km/h 91 % 0 mm 0 W/m2
05:44 4.6 °C 3.3 °C 1007.3 hPa WNW 11.3 km/h 16.1 km/h 91 % 0 mm 0 W/m2
05:49 4.6 °C 3.3 °C 1007.7 hPa West 14.5 km/h 20.9 km/h 91 % 0 mm 0 W/m2
05:54 4.7 °C 3.3 °C 1007.7 hPa West 12.9 km/h 19.3 km/h 91 % 0 mm 0 W/m2
05:59 4.7 °C 3.3 °C 1007.7 hPa West 17.7 km/h 30.6 km/h 91 % 0 mm 0 W/m2
06:04 4.8 °C 3.4 °C 1007.7 hPa West 12.9 km/h 19.3 km/h 91 % 0 mm 0 W/m2
06:09 4.8 °C 3.4 °C 1007.7 hPa West 11.3 km/h 19.3 km/h 91 % 0 mm 0 W/m2
06:14 4.8 °C 3.4 °C 1007.7 hPa West 8 km/h 12.9 km/h 91 % 0 mm 0 W/m2
06:19 4.8 °C 3.4 °C 1007.7 hPa WNW 8 km/h 12.9 km/h 91 % 0 mm 0 W/m2
06:24 4.8 °C 3.4 °C 1007.7 hPa WNW 8 km/h 16.1 km/h 91 % 0 mm 0 W/m2
06:29 4.7 °C 3.3 °C 1007.7 hPa West 9.7 km/h 16.1 km/h 91 % 0 mm 0 W/m2
06:34 4.6 °C 3.1 °C 1007.7 hPa West 9.7 km/h 16.1 km/h 90 % 0 mm 0 W/m2
06:39 4.5 °C 3 °C 1007.7 hPa WNW 12.9 km/h 24.1 km/h 90 % 0 mm 0 W/m2
06:44 4.4 °C 2.9 °C 1008 hPa WNW 9.7 km/h 17.7 km/h 90 % 0 mm 0 W/m2
06:49 4.3 °C 2.8 °C 1008 hPa WNW 11.3 km/h 16.1 km/h 90 % 0 mm 0 W/m2
06:54 4.2 °C 2.6 °C 1008 hPa WNW 9.7 km/h 16.1 km/h 89 % 0 mm 0 W/m2
06:59 4.1 °C 2.4 °C 1008 hPa WNW 11.3 km/h 17.7 km/h 89 % 0 mm 0 W/m2
07:04 4.1 °C 2.4 °C 1008.4 hPa WNW 11.3 km/h 16.1 km/h 89 % 0 mm 0 W/m2
07:10 4.1 °C 2.4 °C 1008.4 hPa WNW 8 km/h 12.9 km/h 89 % 0 mm 5 W/m2
07:15 4.1 °C 2.4 °C 1008.7 hPa WNW 4.8 km/h 9.7 km/h 89 % 0 mm 7 W/m2
07:19 3.9 °C 2.3 °C 1008.7 hPa WNW 6.4 km/h 11.3 km/h 89 % 0 mm 9 W/m2
07:25 3.9 °C 2.4 °C 1008.7 hPa WNW 9.7 km/h 12.9 km/h 90 % 0 mm 11 W/m2
07:30 3.9 °C 2.4 °C 1008.7 hPa WNW 9.7 km/h 16.1 km/h 90 % 0 mm 14 W/m2
07:35 4 °C 2.5 °C 1008.7 hPa WNW 11.3 km/h 17.7 km/h 90 % 0 mm 16 W/m2
07:40 4.1 °C 2.6 °C 1008.7 hPa WNW 8 km/h 14.5 km/h 90 % 0 mm 18 W/m2
07:45 4.2 °C 2.7 °C 1009 hPa WNW 9.7 km/h 14.5 km/h 90 % 0 mm 23 W/m2
07:50 4.3 °C 2.8 °C 1009 hPa WNW 8 km/h 14.5 km/h 90 % 0 mm 28 W/m2
07:55 4.4 °C 2.9 °C 1009.4 hPa NW 8 km/h 11.3 km/h 90 % 0 mm 35 W/m2
08:00 4.4 °C 2.9 °C 1009.4 hPa WNW 4.8 km/h 12.9 km/h 90 % 0 mm 40 W/m2
08:05 4.6 °C 3.1 °C 1009.4 hPa WNW 9.7 km/h 16.1 km/h 90 % 0 mm 44 W/m2
08:10 4.8 °C 3.3 °C 1009.7 hPa WNW 11.3 km/h 16.1 km/h 90 % 0 mm 35 W/m2
08:15 4.9 °C 3.4 °C 1009.7 hPa WNW 11.3 km/h 17.7 km/h 90 % 0 mm 33 W/m2
08:20 5.1 °C 3.6 °C 1009.7 hPa WNW 12.9 km/h 20.9 km/h 90 % 0 mm 33 W/m2
08:25 5.2 °C 3.6 °C 1009.7 hPa WNW 14.5 km/h 20.9 km/h 89 % 0 mm 30 W/m2
08:30 5.2 °C 3.6 °C 1010 hPa WNW 11.3 km/h 17.7 km/h 89 % 0 mm 37 W/m2
08:35 5.2 °C 3.4 °C 1010 hPa WNW 12.9 km/h 19.3 km/h 88 % 0 mm 102 W/m2
08:40 5.3 °C 3.5 °C 1010 hPa WNW 11.3 km/h 16.1 km/h 88 % 0 mm 158 W/m2
08:45 5.4 °C 3.6 °C 1010 hPa WNW 9.7 km/h 12.9 km/h 88 % 0 mm 169 W/m2
08:50 5.5 °C 3.7 °C 1010 hPa WNW 11.3 km/h 16.1 km/h 88 % 0 mm 135 W/m2
08:55 5.7 °C 3.9 °C 1010.4 hPa WNW 11.3 km/h 17.7 km/h 88 % 0 mm 188 W/m2
09:00 5.9 °C 4.1 °C 1010.4 hPa WNW 11.3 km/h 19.3 km/h 88 % 0 mm 179 W/m2
09:05 6.1 °C 4.1 °C 1010.4 hPa WNW 9.7 km/h 16.1 km/h 87 % 0 mm 207 W/m2
09:10 6.4 °C 4.4 °C 1010.4 hPa WNW 11.3 km/h 14.5 km/h 87 % 0 mm 216 W/m2
09:15 6.7 °C 4.5 °C 1010.7 hPa WNW 11.3 km/h 19.3 km/h 86 % 0 mm 227 W/m2
09:20 7 °C 4.7 °C 1010.7 hPa WNW 11.3 km/h 17.7 km/h 85 % 0 mm 236 W/m2
09:25 7.3 °C 4.9 °C 1010.7 hPa WNW 12.9 km/h 22.5 km/h 85 % 0 mm 244 W/m2
09:30 7.4 °C 4.9 °C 1010.7 hPa WNW 14.5 km/h 25.7 km/h 84 % 0 mm 253 W/m2
09:35 7.6 °C 4.9 °C 1010.7 hPa WNW 16.1 km/h 22.5 km/h 83 % 0 mm 264 W/m2
09:40 7.7 °C 4.8 °C 1011.1 hPa WNW 14.5 km/h 20.9 km/h 82 % 0 mm 271 W/m2
09:45 7.8 °C 4.9 °C 1011.1 hPa WNW 14.5 km/h 22.5 km/h 82 % 0 mm 278 W/m2
09:50 8 °C 5.1 °C 1011.1 hPa WNW 14.5 km/h 20.9 km/h 82 % 0 mm 287 W/m2
09:55 8.1 °C 5.1 °C 1011.1 hPa WNW 12.9 km/h 20.9 km/h 81 % 0 mm 295 W/m2
10:00 8.2 °C 4.9 °C 1011.1 hPa WNW 14.5 km/h 19.3 km/h 80 % 0 mm 301 W/m2
10:05 8.4 °C 5.2 °C 1011.4 hPa NW 16.1 km/h 24.1 km/h 80 % 0 mm 308 W/m2
10:10 8.5 °C 5.1 °C 1011.4 hPa WNW 16.1 km/h 20.9 km/h 79 % 0 mm 315 W/m2
10:15 8.6 °C 5.2 °C 1011.4 hPa WNW 12.9 km/h 25.7 km/h 79 % 0 mm 322 W/m2
10:20 8.7 °C 5.1 °C 1011.4 hPa WNW 16.1 km/h 25.7 km/h 78 % 0 mm 329 W/m2
10:25 8.7 °C 4.9 °C 1011.4 hPa WNW 19.3 km/h 32.2 km/h 77 % 0 mm 332 W/m2
10:30 8.8 °C 4.8 °C 1011.7 hPa NW 16.1 km/h 33.8 km/h 76 % 0 mm 339 W/m2
10:35 8.9 °C 4.9 °C 1011.7 hPa NW 14.5 km/h 29 km/h 76 % 0 mm 343 W/m2
10:40 9 °C 4.8 °C 1011.7 hPa NW 14.5 km/h 24.1 km/h 75 % 0 mm 353 W/m2
10:45 9.1 °C 4.9 °C 1012.1 hPa NW 14.5 km/h 24.1 km/h 75 % 0 mm 388 W/m2
10:50 9.3 °C 5.1 °C 1012.1 hPa NW 12.9 km/h 24.1 km/h 75 % 0 mm 388 W/m2
10:55 9.4 °C 5 °C 1012.4 hPa NW 16.1 km/h 29 km/h 74 % 0 mm 459 W/m2
11:00 9.3 °C 4.9 °C 1012.4 hPa NW 16.1 km/h 24.1 km/h 74 % 0 mm 160 W/m2
11:06 9.1 °C 4.9 °C 1012.4 hPa NW 11.3 km/h 19.3 km/h 75 % 0 mm 127 W/m2
11:11 8.9 °C 4.3 °C 1012.4 hPa NW 17.7 km/h 33.8 km/h 73 % 0 mm 109 W/m2
11:16 8.7 °C 4.3 °C 1012.4 hPa NW 12.9 km/h 24.1 km/h 74 % 0 mm 95 W/m2
11:21 8.5 °C 4.1 °C 1012.8 hPa NW 16.1 km/h 24.1 km/h 74 % 0 mm 338 W/m2
11:26 8.6 °C 4.2 °C 1012.8 hPa NW 14.5 km/h 25.7 km/h 74 % 0 mm 394 W/m2
11:31 8.8 °C 4.2 °C 1012.8 hPa NW 19.3 km/h 33.8 km/h 73 % 0 mm 394 W/m2
11:36 9 °C 4.4 °C 1012.8 hPa NW 14.5 km/h 24.1 km/h 73 % 0 mm 385 W/m2
11:41 9.3 °C 4.9 °C 1013.1 hPa NW 8 km/h 14.5 km/h 74 % 0 mm 381 W/m2
11:46 9.4 °C 4.6 °C 1013.1 hPa NW 14.5 km/h 24.1 km/h 72 % 0 mm 383 W/m2
11:51 9.5 °C 4.5 °C 1013.1 hPa NW 14.5 km/h 24.1 km/h 71 % 0 mm 383 W/m2
11:56 9.6 °C 4.6 °C 1013.1 hPa NW 12.9 km/h 24.1 km/h 71 % 0 mm 380 W/m2
12:01 9.7 °C 4.7 °C 1013.1 hPa NW 16.1 km/h 24.1 km/h 71 % 0 mm 381 W/m2
12:06 9.6 °C 4.4 °C 1013.1 hPa NW 19.3 km/h 33.8 km/h 70 % 0 mm 397 W/m2
12:11 9.4 °C 4.2 °C 1013.4 hPa NW 20.9 km/h 32.2 km/h 70 % 0 mm 381 W/m2
12:16 9.4 °C 4.2 °C 1013.1 hPa NW 11.3 km/h 19.3 km/h 70 % 0 mm 378 W/m2
12:21 9.6 °C 4.4 °C 1013.1 hPa NW 14.5 km/h 20.9 km/h 70 % 0 mm 374 W/m2
12:26 9.7 °C 4.3 °C 1013.4 hPa NW 14.5 km/h 25.7 km/h 69 % 0 mm 371 W/m2
12:31 9.8 °C 4.4 °C 1013.4 hPa NW 12.9 km/h 19.3 km/h 69 % 0 mm 371 W/m2
12:36 10 °C 4.6 °C 1013.4 hPa NW 12.9 km/h 24.1 km/h 69 % 0 mm 373 W/m2
12:41 10.1 °C 4.4 °C 1013.8 hPa NW 11.3 km/h 17.7 km/h 68 % 0 mm 364 W/m2
12:46 10.1 °C 4.2 °C 1013.8 hPa NNW 16.1 km/h 29 km/h 67 % 0 mm 359 W/m2
12:51 9.9 °C 4.1 °C 1013.8 hPa NW 17.7 km/h 30.6 km/h 67 % 0 mm 357 W/m2
12:56 9.9 °C 4.1 °C 1013.8 hPa NW 12.9 km/h 22.5 km/h 67 % 0 mm 353 W/m2
13:01 9.9 °C 4.1 °C 1014.1 hPa NW 17.7 km/h 25.7 km/h 67 % 0 mm 352 W/m2
13:06 9.8 °C 3.9 °C 1014.1 hPa NW 20.9 km/h 30.6 km/h 67 % 0 mm 381 W/m2
13:11 9.7 °C 3.9 °C 1014.1 hPa NW 17.7 km/h 32.2 km/h 67 % 0 mm 374 W/m2
13:16 9.7 °C 4.1 °C 1014.1 hPa NW 14.5 km/h 30.6 km/h 68 % 0 mm 343 W/m2
13:21 9.8 °C 4.2 °C 1014.1 hPa NW 14.5 km/h 24.1 km/h 68 % 0 mm 341 W/m2
13:26 9.9 °C 4.3 °C 1014.4 hPa NW 12.9 km/h 22.5 km/h 68 % 0 mm 336 W/m2
13:31 10.1 °C 4.4 °C 1014.4 hPa NW 14.5 km/h 20.9 km/h 68 % 0 mm 355 W/m2
13:36 10.1 °C 4.4 °C 1014.8 hPa NW 14.5 km/h 22.5 km/h 68 % 0 mm 188 W/m2
13:41 10.1 °C 4.4 °C 1014.8 hPa NW 16.1 km/h 20.9 km/h 68 % 0 mm 179 W/m2
13:46 10.1 °C 4.4 °C 1014.8 hPa NW 16.1 km/h 20.9 km/h 68 % 0 mm 149 W/m2
13:51 9.9 °C 4.3 °C 1015.1 hPa NW 11.3 km/h 20.9 km/h 68 % 0 mm 116 W/m2
13:56 9.8 °C 4.2 °C 1015.1 hPa NW 14.5 km/h 20.9 km/h 68 % 0 mm 127 W/m2
14:01 9.7 °C 4.3 °C 1015.1 hPa NW 11.3 km/h 17.7 km/h 69 % 0 mm 104 W/m2
14:06 9.6 °C 4.4 °C 1015.1 hPa NW 11.3 km/h 19.3 km/h 70 % 0 mm 327 W/m2
14:07 9.7 °C 4.5 °C 1015.1 hPa WNW 11.3 km/h 19.3 km/h 70 % 0 mm 95 W/m2
14:22 9.5 °C 3.7 °C 1015.1 hPa NW 12.9 km/h 20.9 km/h 67 % 0 mm 47 W/m2
14:27 9.4 °C 3.8 °C 1015.5 hPa NW 9.7 km/h 14.5 km/h 68 % 0 mm 223 W/m2
14:32 9.6 °C 4 °C 1015.5 hPa NW 11.3 km/h 16.1 km/h 68 % 0 mm 211 W/m2
14:37 9.7 °C 3.9 °C 1015.5 hPa NNW 11.3 km/h 20.9 km/h 67 % 0 mm 200 W/m2
14:42 9.7 °C 3.9 °C 1015.5 hPa NW 9.7 km/h 16.1 km/h 67 % 0 mm 186 W/m2
14:47 9.8 °C 3.9 °C 1015.8 hPa NW 14.5 km/h 24.1 km/h 67 % 0 mm 179 W/m2
14:52 9.7 °C 3.9 °C 1015.8 hPa NW 9.7 km/h 17.7 km/h 67 % 0 mm 167 W/m2
14:57 9.6 °C 3.8 °C 1015.8 hPa NW 11.3 km/h 17.7 km/h 67 % 0 mm 158 W/m2
15:02 9.4 °C 3.6 °C 1016.1 hPa NW 14.5 km/h 22.5 km/h 67 % 0 mm 149 W/m2
15:03 9.4 °C 3.6 °C 1016.1 hPa NW 14.5 km/h 22.5 km/h 67 % 0 mm 149 W/m2
15:08 9.3 °C 3.7 °C 1016.1 hPa NW 12.9 km/h 20.9 km/h 68 % 0 mm 109 W/m2
15:13 9.2 °C 3.8 °C 1016.1 hPa NW 11.3 km/h 17.7 km/h 69 % 0 mm 39 W/m2
15:18 9.1 °C 3.7 °C 1016.5 hPa NW 11.3 km/h 22.5 km/h 69 % 0 mm 42 W/m2
15:23 9 °C 3.6 °C 1016.5 hPa NW 9.7 km/h 16.1 km/h 69 % 0 mm 37 W/m2
15:28 9 °C 3.6 °C 1016.5 hPa WNW 12.9 km/h 19.3 km/h 69 % 0 mm 47 W/m2
15:33 9 °C 3.8 °C 1016.5 hPa WNW 8 km/h 14.5 km/h 70 % 0 mm 39 W/m2
15:38 8.9 °C 3.7 °C 1016.8 hPa NW 11.3 km/h 17.7 km/h 70 % 0 mm 63 W/m2
15:43 8.9 °C 3.7 °C 1016.8 hPa NW 6.4 km/h 14.5 km/h 70 % 0 mm 65 W/m2
15:48 8.9 °C 3.9 °C 1017.2 hPa NW 9.7 km/h 16.1 km/h 71 % 0 mm 54 W/m2
15:53 8.9 °C 3.9 °C 1017.2 hPa NW 8 km/h 12.9 km/h 71 % 0 mm 40 W/m2
15:58 8.8 °C 3.6 °C 1017.2 hPa NW 12.9 km/h 19.3 km/h 70 % 0 mm 40 W/m2
16:03 8.8 °C 3.8 °C 1017.5 hPa NW 9.7 km/h 16.1 km/h 71 % 0 mm 21 W/m2
16:08 8.7 °C 3.7 °C 1017.5 hPa NNW 9.7 km/h 14.5 km/h 71 % 0 mm 16 W/m2
16:13 8.6 °C 3.6 °C 1017.8 hPa NW 6.4 km/h 14.5 km/h 71 % 0 mm 11 W/m2
16:18 8.6 °C 3.6 °C 1017.8 hPa NW 9.7 km/h 14.5 km/h 71 % 0 mm 7 W/m2
16:23 8.4 °C 3.7 °C 1017.8 hPa NW 6.4 km/h 11.3 km/h 72 % 0 mm 5 W/m2
16:28 8.3 °C 3.6 °C 1017.8 hPa NW 8 km/h 14.5 km/h 72 % 0 mm 0 W/m2
16:33 8.3 °C 3.7 °C 1017.8 hPa NW 4.8 km/h 11.3 km/h 73 % 0 mm 0 W/m2
16:38 8.2 °C 3.7 °C 1018.2 hPa NW 6.4 km/h 9.7 km/h 73 % 0 mm 0 W/m2
16:43 8.1 °C 3.7 °C 1018.2 hPa NW 4.8 km/h 8 km/h 74 % 0 mm 0 W/m2
16:48 8.1 °C 3.7 °C 1018.2 hPa NW 8 km/h 12.9 km/h 74 % 0 mm 0 W/m2
16:53 8 °C 3.7 °C 1018.5 hPa NW 3.2 km/h 8 km/h 74 % 0 mm 0 W/m2
16:58 7.9 °C 3.6 °C 1018.5 hPa NW 6.4 km/h 11.3 km/h 74 % 0 mm 0 W/m2
17:03 7.9 °C 3.6 °C 1018.5 hPa NW 9.7 km/h 12.9 km/h 74 % 0 mm 0 W/m2
17:08 7.8 °C 3.4 °C 1018.5 hPa NW 6.4 km/h 9.7 km/h 74 % 0 mm 0 W/m2
17:09 7.7 °C 3.3 °C 1018.5 hPa NW 4.8 km/h 9.7 km/h 74 % 0 mm 0 W/m2
17:14 7.6 °C 3.3 °C 1018.8 hPa NW 6.4 km/h 14.5 km/h 74 % 0 mm 0 W/m2
17:19 7.4 °C 3.3 °C 1018.8 hPa NW 9.7 km/h 12.9 km/h 75 % 0 mm 0 W/m2
17:24 7.2 °C 3.1 °C 1018.8 hPa NW 8 km/h 11.3 km/h 75 % 0 mm 0 W/m2
17:29 7.1 °C 3.2 °C 1019.2 hPa NW 8 km/h 12.9 km/h 76 % 0 mm 0 W/m2
17:34 7 °C 3.1 °C 1019.2 hPa WNW 8 km/h 11.3 km/h 76 % 0 mm 0 W/m2
17:39 6.8 °C 3.1 °C 1019.2 hPa NW 8 km/h 14.5 km/h 77 % 0 mm 0 W/m2
17:44 6.7 °C 2.9 °C 1019.2 hPa NW 9.7 km/h 16.1 km/h 77 % 0 mm 0 W/m2
17:48 6.6 °C 3.1 °C 1019.5 hPa NW 11.3 km/h 17.7 km/h 78 % 0 mm 0 W/m2
17:53 6.6 °C 3.1 °C 1019.5 hPa NW 11.3 km/h 16.1 km/h 78 % 0 mm 0 W/m2
17:58 6.5 °C 2.9 °C 1019.5 hPa NW 8 km/h 14.5 km/h 78 % 0 mm 0 W/m2
18:03 6.4 °C 2.8 °C 1019.5 hPa NW 6.4 km/h 11.3 km/h 78 % 0 mm 0 W/m2
18:08 6.3 °C 2.7 °C 1019.5 hPa NW 8 km/h 12.9 km/h 78 % 0 mm 0 W/m2
18:13 6.3 °C 2.7 °C 1019.5 hPa WNW 6.4 km/h 11.3 km/h 78 % 0 mm 0 W/m2
18:18 6.2 °C 2.7 °C 1019.9 hPa WNW 8 km/h 12.9 km/h 78 % 0 mm 0 W/m2
18:23 6.2 °C 2.7 °C 1019.9 hPa WNW 4.8 km/h 9.7 km/h 78 % 0 mm 0 W/m2
18:28 6.1 °C 2.6 °C 1019.9 hPa WNW 6.4 km/h 9.7 km/h 78 % 0 mm 0 W/m2
18:33 6 °C 2.6 °C 1019.9 hPa WNW 3.2 km/h 6.4 km/h 79 % 0 mm 0 W/m2
18:38 5.8 °C 2.4 °C 1019.9 hPa Calm   1.6 km/h 79 % 0 mm 0 W/m2
18:43 5.7 °C 2.3 °C 1020.2 hPa Calm     79 % 0 mm 0 W/m2
18:48 5.4 °C 2.1 °C 1020.2 hPa WNW 3.2 km/h 6.4 km/h 79 % 0 mm 0 W/m2
18:53 5.2 °C 2.1 °C 1020.2 hPa Calm   3.2 km/h 80 % 0 mm 0 W/m2
18:58 5 °C 1.8 °C 1020.2 hPa WNW 3.2 km/h 6.4 km/h 80 % 0 mm 0 W/m2
19:03 4.8 °C 1.8 °C 1020.2 hPa WNW 4.8 km/h 8 km/h 81 % 0 mm 0 W/m2
19:08 4.6 °C 1.8 °C 1020.2 hPa WNW 3.2 km/h 6.4 km/h 82 % 0 mm 0 W/m2
19:13 4.5 °C 1.9 °C 1020.2 hPa WNW 3.2 km/h 8 km/h 83 % 0 mm 0 W/m2
19:18 4.4 °C 1.8 °C 1020.2 hPa WNW 3.2 km/h 8 km/h 83 % 0 mm 0 W/m2
19:23 4.3 °C 1.7 °C 1020.5 hPa WNW 3.2 km/h 6.4 km/h 83 % 0 mm 0 W/m2
19:28 4.2 °C 1.7 °C 1020.5 hPa WNW 3.2 km/h 6.4 km/h 84 % 0 mm 0 W/m2
19:33 4.1 °C 1.6 °C 1020.5 hPa WNW 4.8 km/h 9.7 km/h 84 % 0 mm 0 W/m2
19:34 4.1 °C 1.6 °C 1020.5 hPa WNW 4.8 km/h 8 km/h 84 % 0 mm 0 W/m2
19:39 4.1 °C 1.6 °C 1020.5 hPa WNW 6.4 km/h 11.3 km/h 84 % 0 mm 0 W/m2
19:44 4.1 °C 1.6 °C 1020.5 hPa NW 8 km/h 12.9 km/h 84 % 0 mm 0 W/m2
19:49 4.1 °C 1.6 °C 1020.5 hPa NW 8 km/h 12.9 km/h 84 % 0 mm 0 W/m2
19:54 4.2 °C 1.7 °C 1020.5 hPa WNW 8 km/h 12.9 km/h 84 % 0 mm 0 W/m2
19:59 4.3 °C 1.7 °C 1020.9 hPa WNW 6.4 km/h 11.3 km/h 83 % 0 mm 0 W/m2
20:04 4.3 °C 1.7 °C 1020.9 hPa NW 6.4 km/h 9.7 km/h 83 % 0 mm 0 W/m2
20:09 4.3 °C 1.7 °C 1020.9 hPa NW 6.4 km/h 9.7 km/h 83 % 0 mm 0 W/m2
20:14 4.2 °C 1.6 °C 1020.9 hPa WNW 6.4 km/h 11.3 km/h 83 % 0 mm 0 W/m2
20:19 4.2 °C 1.6 °C 1020.9 hPa WNW 6.4 km/h 9.7 km/h 83 % 0 mm 0 W/m2
20:24 4.2 °C 1.4 °C 1020.9 hPa NW 4.8 km/h 11.3 km/h 82 % 0 mm 0 W/m2
20:29 4.1 °C 1.3 °C 1020.9 hPa NW 4.8 km/h 9.7 km/h 82 % 0 mm 0 W/m2
20:34 4.1 °C 1.3 °C 1020.9 hPa NW 4.8 km/h 9.7 km/h 82 % 0 mm 0 W/m2
20:39 4.1 °C 1.3 °C 1020.9 hPa NNW 4.8 km/h 9.7 km/h 82 % 0 mm 0 W/m2
20:44 4.1 °C 1.3 °C 1020.9 hPa NW 6.4 km/h 9.7 km/h 82 % 0 mm 0 W/m2
20:49 4.1 °C 1.3 °C 1021.2 hPa WNW 3.2 km/h 6.4 km/h 82 % 0 mm 0 W/m2
20:54 3.9 °C 1.1 °C 1021.2 hPa NW 3.2 km/h 8 km/h 82 % 0 mm 0 W/m2
20:59 3.9 °C 1.1 °C 1021.2 hPa NW 3.2 km/h 9.7 km/h 82 % 0 mm 0 W/m2
21:04 3.8 °C 1 °C 1021.6 hPa NW 4.8 km/h 9.7 km/h 82 % 0 mm 0 W/m2
21:09 3.7 °C 0.9 °C 1021.6 hPa Calm   3.2 km/h 82 % 0 mm 0 W/m2
21:14 3.5 °C 0.7 °C 1021.6 hPa NW 1.6 km/h 3.2 km/h 82 % 0 mm 0 W/m2
21:19 3.3 °C 0.7 °C 1021.6 hPa NW 1.6 km/h 3.2 km/h 83 % 0 mm 0 W/m2
21:24 3.1 °C 0.5 °C 1021.6 hPa Calm   3.2 km/h 83 % 0 mm 0 W/m2
21:29 2.8 °C 0.2 °C 1021.6 hPa Calm     83 % 0 mm 0 W/m2
21:34 2.7 °C 0.1 °C 1021.6 hPa NW 3.2 km/h 6.4 km/h 83 % 0 mm 0 W/m2
21:39 2.5 °C 0.1 °C 1021.6 hPa WNW 4.8 km/h 6.4 km/h 84 % 0 mm 0 W/m2
21:44 2.3 °C 0.1 °C 1021.6 hPa WNW 3.2 km/h 4.8 km/h 85 % 0 mm 0 W/m2
21:49 2.3 °C 0.2 °C 1021.6 hPa WNW 1.6 km/h 3.2 km/h 86 % 0 mm 0 W/m2
21:54 2.2 °C 0.1 °C 1021.6 hPa Calm     86 % 0 mm 0 W/m2
21:59 2.1 °C 0 °C 1021.6 hPa WNW 1.6 km/h 6.4 km/h 86 % 0 mm 0 W/m2
22:04 1.9 °C -0.2 °C 1021.9 hPa WNW 1.6 km/h 6.4 km/h 86 % 0 mm 0 W/m2
22:09 1.7 °C -0.2 °C 1021.9 hPa Calm     87 % 0 mm 0 W/m2
22:14 1.6 °C -0.3 °C 1021.9 hPa Calm     87 % 0 mm 0 W/m2
22:19 1.4 °C -0.6 °C 1021.9 hPa Calm     87 % 0 mm 0 W/m2
22:24 1.2 °C -0.7 °C 1021.9 hPa WNW 1.6 km/h 3.2 km/h 87 % 0 mm 0 W/m2
22:29 1.1 °C -0.8 °C 1021.9 hPa WNW 1.6 km/h 3.2 km/h 87 % 0 mm 0 W/m2
22:34 1 °C -0.8 °C 1021.9 hPa Calm     88 % 0 mm 0 W/m2
22:39 0.9 °C -0.7 °C 1021.9 hPa Calm     89 % 0 mm 0 W/m2
22:44 0.9 °C -0.7 °C 1022.2 hPa Calm   3.2 km/h 89 % 0 mm 0 W/m2
22:49 0.8 °C -0.8 °C 1022.2 hPa WNW 3.2 km/h 6.4 km/h 89 % 0 mm 0 W/m2
22:54 0.8 °C -0.7 °C 1022.2 hPa WNW 3.2 km/h 6.4 km/h 90 % 0 mm 0 W/m2
22:59 0.9 °C -0.6 °C 1022.2 hPa WNW 3.2 km/h 6.4 km/h 90 % 0 mm 0 W/m2
23:04 1.1 °C -0.2 °C 1022.2 hPa WNW 1.6 km/h 4.8 km/h 91 % 0 mm 0 W/m2
23:09 1.1 °C -0.2 °C 1022.2 hPa Calm     91 % 0 mm 0 W/m2
23:14 1.1 °C -0.2 °C 1022.2 hPa Calm   3.2 km/h 91 % 0 mm 0 W/m2
23:20 1.1 °C -0.2 °C 1022.2 hPa Calm   1.6 km/h 91 % 0 mm 0 W/m2
23:25 1.1 °C -0.2 °C 1022.6 hPa WNW 1.6 km/h 4.8 km/h 91 % 0 mm 0 W/m2
23:30 0.9 °C -0.4 °C 1022.6 hPa Calm     91 % 0 mm 0 W/m2
23:35 0.8 °C -0.7 °C 1022.6 hPa Calm     90 % 0 mm 0 W/m2
23:40 0.7 °C -0.8 °C 1022.6 hPa WNW 1.6 km/h 3.2 km/h 90 % 0 mm 0 W/m2
23:45 0.6 °C -0.8 °C 1022.6 hPa WNW 1.6 km/h 3.2 km/h 90 % 0 mm 0 W/m2
23:50 0.6 °C -0.7 °C 1022.6 hPa Calm   3.2 km/h 91 % 0 mm 0 W/m2
23:55 0.4 °C -0.9 °C 1022.9 hPa WNW 1.6 km/h 3.2 km/h 91 % 0 mm 0 W/m2
Delerius-Weather
Compliments of Weather Underground - 2.25 mb

Data updates at regular intervals.